sensor_id;sensor_type;location;lat;lon;timestamp;P1;durP1;ratioP1;P2;durP2;ratioP2
59998;SDS011;45859;51.378;6.736;2022-07-29T00:01:20;3.92;;;1.60;;
59998;SDS011;45859;51.378;6.736;2022-07-29T00:03:46;5.78;;;1.27;;
59998;SDS011;45859;51.378;6.736;2022-07-29T00:06:12;2.38;;;1.40;;
59998;SDS011;45859;51.378;6.736;2022-07-29T00:08:38;4.43;;;1.55;;
59998;SDS011;45859;51.378;6.736;2022-07-29T00:11:04;3.25;;;1.35;;
59998;SDS011;45859;51.378;6.736;2022-07-29T00:13:29;5.03;;;1.70;;
59998;SDS011;45859;51.378;6.736;2022-07-29T00:15:55;3.65;;;1.35;;
59998;SDS011;45859;51.378;6.736;2022-07-29T00:18:21;5.32;;;1.52;;
59998;SDS011;45859;51.378;6.736;2022-07-29T00:20:46;2.92;;;1.30;;
59998;SDS011;45859;51.378;6.736;2022-07-29T00:23:12;3.08;;;1.50;;
59998;SDS011;45859;51.378;6.736;2022-07-29T00:25:37;3.78;;;1.40;;
59998;SDS011;45859;51.378;6.736;2022-07-29T00:28:03;5.03;;;1.50;;
59998;SDS011;45859;51.378;6.736;2022-07-29T00:30:29;3.83;;;1.35;;
59998;SDS011;45859;51.378;6.736;2022-07-29T00:32:54;4.13;;;1.50;;
59998;SDS011;45859;51.378;6.736;2022-07-29T00:35:20;4.93;;;1.77;;
59998;SDS011;45859;51.378;6.736;2022-07-29T00:38:04;2.95;;;1.30;;
59998;SDS011;45859;51.378;6.736;2022-07-29T00:40:30;3.45;;;1.40;;
59998;SDS011;45859;51.378;6.736;2022-07-29T00:42:55;5.20;;;1.50;;
59998;SDS011;45859;51.378;6.736;2022-07-29T00:45:21;3.28;;;1.30;;
59998;SDS011;45859;51.378;6.736;2022-07-29T00:47:47;5.38;;;1.30;;
59998;SDS011;45859;51.378;6.736;2022-07-29T00:50:13;2.70;;;1.40;;
59998;SDS011;45859;51.378;6.736;2022-07-29T00:52:39;2.00;;;1.30;;
59998;SDS011;45859;51.378;6.736;2022-07-29T00:55:07;5.00;;;1.60;;
59998;SDS011;45859;51.378;6.736;2022-07-29T00:57:35;3.45;;;1.30;;
59998;SDS011;45859;51.378;6.736;2022-07-29T01:00:05;4.75;;;1.70;;
59998;SDS011;45859;51.378;6.736;2022-07-29T01:02:32;5.55;;;1.48;;
59998;SDS011;45859;51.378;6.736;2022-07-29T01:04:58;4.70;;;1.48;;
59998;SDS011;45859;51.378;6.736;2022-07-29T01:07:25;5.40;;;1.67;;
59998;SDS011;45859;51.378;6.736;2022-07-29T01:09:51;4.65;;;1.65;;
59998;SDS011;45859;51.378;6.736;2022-07-29T01:12:18;3.15;;;1.40;;
59998;SDS011;45859;51.378;6.736;2022-07-29T01:14:48;3.42;;;1.48;;
59998;SDS011;45859;51.378;6.736;2022-07-29T01:30:56;4.35;;;1.50;;
59998;SDS011;45859;51.378;6.736;2022-07-29T01:33:25;3.80;;;1.45;;
59998;SDS011;45859;51.378;6.736;2022-07-29T01:36:13;5.13;;;1.55;;
59998;SDS011;45859;51.378;6.736;2022-07-29T01:38:42;3.90;;;1.38;;
59998;SDS011;45859;51.378;6.736;2022-07-29T01:41:14;3.25;;;1.30;;
59998;SDS011;45859;51.378;6.736;2022-07-29T01:43:44;5.35;;;1.30;;
59998;SDS011;45859;51.378;6.736;2022-07-29T01:46:31;4.30;;;1.60;;
59998;SDS011;45859;51.378;6.736;2022-07-29T01:49:06;4.20;;;1.40;;
59998;SDS011;45859;51.378;6.736;2022-07-29T01:51:44;2.60;;;1.60;;
59998;SDS011;45859;51.378;6.736;2022-07-29T01:54:45;7.78;;;2.05;;
59998;SDS011;45859;51.378;6.736;2022-07-29T01:57:16;4.43;;;1.40;;
59998;SDS011;45859;51.378;6.736;2022-07-29T01:59:46;6.70;;;1.80;;
59998;SDS011;45859;51.378;6.736;2022-07-29T02:02:16;4.68;;;1.30;;
59998;SDS011;45859;51.378;6.736;2022-07-29T02:04:44;3.40;;;1.48;;
59998;SDS011;45859;51.378;6.736;2022-07-29T02:07:15;4.00;;;1.60;;
59998;SDS011;45859;51.378;6.736;2022-07-29T02:09:44;3.88;;;1.63;;
59998;SDS011;45859;51.378;6.736;2022-07-29T02:12:12;3.95;;;1.30;;
59998;SDS011;45859;51.378;6.736;2022-07-29T02:14:42;4.80;;;1.52;;
59998;SDS011;45859;51.378;6.736;2022-07-29T02:17:12;6.88;;;1.58;;
59998;SDS011;45859;51.378;6.736;2022-07-29T02:19:42;3.55;;;1.40;;
59998;SDS011;45859;51.378;6.736;2022-07-29T02:22:09;4.65;;;1.60;;
59998;SDS011;45859;51.378;6.736;2022-07-29T02:24:37;3.78;;;1.60;;
59998;SDS011;45859;51.378;6.736;2022-07-29T02:27:05;3.35;;;1.35;;
59998;SDS011;45859;51.378;6.736;2022-07-29T02:29:32;5.30;;;1.48;;
59998;SDS011;45859;51.378;6.736;2022-07-29T02:31:59;4.85;;;1.50;;
59998;SDS011;45859;51.378;6.736;2022-07-29T02:34:27;4.93;;;1.65;;
59998;SDS011;45859;51.378;6.736;2022-07-29T02:36:54;3.92;;;1.35;;
59998;SDS011;45859;51.378;6.736;2022-07-29T02:39:20;4.35;;;1.38;;
59998;SDS011;45859;51.378;6.736;2022-07-29T02:41:54;6.97;;;1.65;;
59998;SDS011;45859;51.378;6.736;2022-07-29T02:44:24;5.13;;;1.52;;
59998;SDS011;45859;51.378;6.736;2022-07-29T02:46:52;5.45;;;1.63;;
59998;SDS011;45859;51.378;6.736;2022-07-29T02:49:47;3.00;;;1.15;;
59998;SDS011;45859;51.378;6.736;2022-07-29T02:52:44;4.63;;;1.30;;
59998;SDS011;45859;51.378;6.736;2022-07-29T02:58:10;2.40;;;1.37;;
59998;SDS011;45859;51.378;6.736;2022-07-29T03:00:42;5.07;;;1.23;;
59998;SDS011;45859;51.378;6.736;2022-07-29T03:03:12;2.40;;;1.25;;
59998;SDS011;45859;51.378;6.736;2022-07-29T03:05:40;3.97;;;1.40;;
59998;SDS011;45859;51.378;6.736;2022-07-29T03:08:06;2.97;;;1.30;;
59998;SDS011;45859;51.378;6.736;2022-07-29T03:10:34;2.60;;;1.20;;
59998;SDS011;45859;51.378;6.736;2022-07-29T03:13:01;4.33;;;1.20;;
59998;SDS011;45859;51.378;6.736;2022-07-29T03:15:28;4.30;;;1.30;;
59998;SDS011;45859;51.378;6.736;2022-07-29T03:17:54;3.97;;;1.03;;
59998;SDS011;45859;51.378;6.736;2022-07-29T03:20:20;6.20;;;1.57;;
59998;SDS011;45859;51.378;6.736;2022-07-29T03:22:46;5.90;;;1.53;;
59998;SDS011;45859;51.378;6.736;2022-07-29T03:25:13;4.23;;;1.20;;
59998;SDS011;45859;51.378;6.736;2022-07-29T03:27:40;6.03;;;1.20;;
59998;SDS011;45859;51.378;6.736;2022-07-29T03:30:07;4.00;;;1.20;;
59998;SDS011;45859;51.378;6.736;2022-07-29T03:32:34;2.50;;;1.30;;
59998;SDS011;45859;51.378;6.736;2022-07-29T03:34:59;6.27;;;1.30;;
59998;SDS011;45859;51.378;6.736;2022-07-29T03:37:25;6.33;;;1.20;;
59998;SDS011;45859;51.378;6.736;2022-07-29T03:39:52;3.37;;;1.10;;
59998;SDS011;45859;51.378;6.736;2022-07-29T03:42:21;3.17;;;1.00;;
59998;SDS011;45859;51.378;6.736;2022-07-29T03:44:50;4.35;;;1.42;;
59998;SDS011;45859;51.378;6.736;2022-07-29T03:47:19;5.53;;;1.43;;
59998;SDS011;45859;51.378;6.736;2022-07-29T03:49:52;2.83;;;1.13;;
59998;SDS011;45859;51.378;6.736;2022-07-29T03:52:22;2.43;;;1.27;;
59998;SDS011;45859;51.378;6.736;2022-07-29T03:54:47;5.87;;;1.30;;
59998;SDS011;45859;51.378;6.736;2022-07-29T03:57:14;4.43;;;1.20;;
59998;SDS011;45859;51.378;6.736;2022-07-29T03:59:41;6.80;;;1.77;;
59998;SDS011;45859;51.378;6.736;2022-07-29T04:02:09;6.03;;;1.57;;
59998;SDS011;45859;51.378;6.736;2022-07-29T04:04:36;6.07;;;2.10;;
59998;SDS011;45859;51.378;6.736;2022-07-29T04:07:02;6.50;;;2.30;;
59998;SDS011;45859;51.378;6.736;2022-07-29T04:09:28;9.70;;;2.77;;
59998;SDS011;45859;51.378;6.736;2022-07-29T04:11:54;5.07;;;1.90;;
59998;SDS011;45859;51.378;6.736;2022-07-29T04:14:19;4.80;;;2.00;;
59998;SDS011;45859;51.378;6.736;2022-07-29T04:16:45;4.83;;;1.90;;
59998;SDS011;45859;51.378;6.736;2022-07-29T04:19:11;3.87;;;2.20;;
59998;SDS011;45859;51.378;6.736;2022-07-29T04:21:40;6.03;;;2.50;;
59998;SDS011;45859;51.378;6.736;2022-07-29T04:24:06;3.83;;;2.40;;
59998;SDS011;45859;51.378;6.736;2022-07-29T04:26:33;6.43;;;2.40;;
59998;SDS011;45859;51.378;6.736;2022-07-29T04:28:59;7.10;;;2.30;;
59998;SDS011;45859;51.378;6.736;2022-07-29T04:31:25;8.70;;;6.70;;
59998;SDS011;45859;51.378;6.736;2022-07-29T04:33:51;4.67;;;2.50;;
59998;SDS011;45859;51.378;6.736;2022-07-29T04:36:16;5.87;;;2.40;;
59998;SDS011;45859;51.378;6.736;2022-07-29T04:38:42;4.83;;;2.60;;
59998;SDS011;45859;51.378;6.736;2022-07-29T04:41:08;9.17;;;3.10;;
59998;SDS011;45859;51.378;6.736;2022-07-29T04:43:34;8.37;;;3.13;;
59998;SDS011;45859;51.378;6.736;2022-07-29T04:46:01;8.40;;;3.20;;
59998;SDS011;45859;51.378;6.736;2022-07-29T04:48:27;7.60;;;3.83;;
59998;SDS011;45859;51.378;6.736;2022-07-29T04:50:52;7.17;;;4.00;;
59998;SDS011;45859;51.378;6.736;2022-07-29T04:53:18;10.93;;;3.80;;
59998;SDS011;45859;51.378;6.736;2022-07-29T04:55:43;6.30;;;3.80;;
59998;SDS011;45859;51.378;6.736;2022-07-29T04:58:10;10.40;;;4.23;;
59998;SDS011;45859;51.378;6.736;2022-07-29T05:00:36;8.63;;;4.17;;
59998;SDS011;45859;51.378;6.736;2022-07-29T05:03:01;7.80;;;3.30;;
59998;SDS011;45859;51.378;6.736;2022-07-29T05:05:27;6.10;;;3.50;;
59998;SDS011;45859;51.378;6.736;2022-07-29T05:07:53;4.87;;;3.50;;
59998;SDS011;45859;51.378;6.736;2022-07-29T05:10:19;5.57;;;3.10;;
59998;SDS011;45859;51.378;6.736;2022-07-29T05:12:44;6.67;;;3.50;;
59998;SDS011;45859;51.378;6.736;2022-07-29T05:15:10;8.30;;;4.47;;
59998;SDS011;45859;51.378;6.736;2022-07-29T05:17:36;12.67;;;3.77;;
59998;SDS011;45859;51.378;6.736;2022-07-29T05:20:02;9.23;;;3.27;;
59998;SDS011;45859;51.378;6.736;2022-07-29T05:22:28;7.23;;;3.40;;
59998;SDS011;45859;51.378;6.736;2022-07-29T05:24:54;8.60;;;3.13;;
59998;SDS011;45859;51.378;6.736;2022-07-29T05:27:19;4.97;;;3.00;;
59998;SDS011;45859;51.378;6.736;2022-07-29T05:29:45;6.17;;;2.97;;
59998;SDS011;45859;51.378;6.736;2022-07-29T05:32:11;6.47;;;3.17;;
59998;SDS011;45859;51.378;6.736;2022-07-29T05:34:37;9.47;;;3.40;;
59998;SDS011;45859;51.378;6.736;2022-07-29T05:37:03;4.60;;;3.53;;
59998;SDS011;45859;51.378;6.736;2022-07-29T05:39:29;7.17;;;3.57;;
59998;SDS011;45859;51.378;6.736;2022-07-29T05:41:54;9.17;;;3.77;;
59998;SDS011;45859;51.378;6.736;2022-07-29T05:44:20;5.87;;;3.20;;
59998;SDS011;45859;51.378;6.736;2022-07-29T05:46:45;5.03;;;2.70;;
59998;SDS011;45859;51.378;6.736;2022-07-29T05:49:11;7.53;;;3.57;;
59998;SDS011;45859;51.378;6.736;2022-07-29T05:51:37;6.40;;;3.43;;
59998;SDS011;45859;51.378;6.736;2022-07-29T05:54:02;6.67;;;3.07;;
59998;SDS011;45859;51.378;6.736;2022-07-29T05:56:28;5.17;;;2.63;;
59998;SDS011;45859;51.378;6.736;2022-07-29T05:58:54;8.47;;;2.97;;
59998;SDS011;45859;51.378;6.736;2022-07-29T06:01:20;8.60;;;3.47;;
59998;SDS011;45859;51.378;6.736;2022-07-29T06:03:45;5.37;;;3.10;;
59998;SDS011;45859;51.378;6.736;2022-07-29T06:06:11;6.57;;;3.27;;
59998;SDS011;45859;51.378;6.736;2022-07-29T06:08:37;6.07;;;2.80;;
59998;SDS011;45859;51.378;6.736;2022-07-29T06:11:03;5.60;;;2.73;;
59998;SDS011;45859;51.378;6.736;2022-07-29T06:13:29;5.27;;;2.73;;
59998;SDS011;45859;51.378;6.736;2022-07-29T06:15:55;3.80;;;2.63;;
59998;SDS011;45859;51.378;6.736;2022-07-29T06:18:21;6.60;;;3.20;;
59998;SDS011;45859;51.378;6.736;2022-07-29T06:20:52;5.00;;;3.13;;
59998;SDS011;45859;51.378;6.736;2022-07-29T06:23:18;6.43;;;2.80;;
59998;SDS011;45859;51.378;6.736;2022-07-29T06:25:45;5.70;;;2.63;;
59998;SDS011;45859;51.378;6.736;2022-07-29T06:28:11;5.30;;;3.03;;
59998;SDS011;45859;51.378;6.736;2022-07-29T06:30:37;4.07;;;2.97;;
59998;SDS011;45859;51.378;6.736;2022-07-29T06:33:04;5.63;;;3.20;;
59998;SDS011;45859;51.378;6.736;2022-07-29T06:35:30;5.70;;;3.20;;
59998;SDS011;45859;51.378;6.736;2022-07-29T06:37:58;7.77;;;3.47;;
59998;SDS011;45859;51.378;6.736;2022-07-29T06:40:23;5.23;;;2.97;;
59998;SDS011;45859;51.378;6.736;2022-07-29T06:43:07;4.90;;;3.53;;
59998;SDS011;45859;51.378;6.736;2022-07-29T06:45:33;7.53;;;3.60;;
59998;SDS011;45859;51.378;6.736;2022-07-29T06:47:59;6.40;;;3.73;;
59998;SDS011;45859;51.378;6.736;2022-07-29T06:50:25;6.87;;;3.43;;
59998;SDS011;45859;51.378;6.736;2022-07-29T06:52:51;5.60;;;3.53;;
59998;SDS011;45859;51.378;6.736;2022-07-29T06:55:17;6.87;;;3.53;;
59998;SDS011;45859;51.378;6.736;2022-07-29T06:57:44;6.73;;;3.53;;
59998;SDS011;45859;51.378;6.736;2022-07-29T07:00:11;5.60;;;3.30;;
59998;SDS011;45859;51.378;6.736;2022-07-29T07:02:37;7.20;;;3.47;;
59998;SDS011;45859;51.378;6.736;2022-07-29T07:05:03;6.60;;;3.43;;
59998;SDS011;45859;51.378;6.736;2022-07-29T07:07:30;8.97;;;3.63;;
59998;SDS011;45859;51.378;6.736;2022-07-29T07:09:56;7.33;;;3.70;;
59998;SDS011;45859;51.378;6.736;2022-07-29T07:12:22;10.27;;;3.87;;
59998;SDS011;45859;51.378;6.736;2022-07-29T07:14:47;6.50;;;3.60;;
59998;SDS011;45859;51.378;6.736;2022-07-29T07:17:13;6.03;;;3.40;;
59998;SDS011;45859;51.378;6.736;2022-07-29T07:19:39;10.00;;;4.10;;
59998;SDS011;45859;51.378;6.736;2022-07-29T07:22:04;7.80;;;3.70;;
59998;SDS011;45859;51.378;6.736;2022-07-29T07:24:30;8.07;;;4.00;;
59998;SDS011;45859;51.378;6.736;2022-07-29T07:26:55;14.97;;;3.73;;
59998;SDS011;45859;51.378;6.736;2022-07-29T07:29:21;9.87;;;4.10;;
59998;SDS011;45859;51.378;6.736;2022-07-29T07:31:47;7.90;;;3.70;;
59998;SDS011;45859;51.378;6.736;2022-07-29T07:34:12;9.37;;;3.97;;
59998;SDS011;45859;51.378;6.736;2022-07-29T07:36:38;9.07;;;4.40;;
59998;SDS011;45859;51.378;6.736;2022-07-29T07:39:03;10.13;;;4.30;;
59998;SDS011;45859;51.378;6.736;2022-07-29T07:41:30;10.67;;;4.33;;
59998;SDS011;45859;51.378;6.736;2022-07-29T07:43:56;8.17;;;4.00;;
59998;SDS011;45859;51.378;6.736;2022-07-29T07:46:21;13.63;;;4.67;;
59998;SDS011;45859;51.378;6.736;2022-07-29T07:48:47;13.77;;;5.13;;
59998;SDS011;45859;51.378;6.736;2022-07-29T07:51:12;10.60;;;4.67;;
59998;SDS011;45859;51.378;6.736;2022-07-29T07:53:38;8.77;;;4.53;;
59998;SDS011;45859;51.378;6.736;2022-07-29T07:56:04;7.97;;;4.40;;
59998;SDS011;45859;51.378;6.736;2022-07-29T07:58:31;7.40;;;4.30;;
59998;SDS011;45859;51.378;6.736;2022-07-29T08:00:57;6.60;;;3.97;;
59998;SDS011;45859;51.378;6.736;2022-07-29T08:03:22;6.83;;;4.20;;
59998;SDS011;45859;51.378;6.736;2022-07-29T08:05:48;10.97;;;4.90;;
59998;SDS011;45859;51.378;6.736;2022-07-29T08:08:15;7.47;;;4.07;;
59998;SDS011;45859;51.378;6.736;2022-07-29T08:10:41;10.30;;;4.20;;
59998;SDS011;45859;51.378;6.736;2022-07-29T08:15:50;10.70;;;4.53;;
59998;SDS011;45859;51.378;6.736;2022-07-29T08:18:37;7.10;;;4.20;;
59998;SDS011;45859;51.378;6.736;2022-07-29T08:21:04;8.10;;;4.63;;
59998;SDS011;45859;51.378;6.736;2022-07-29T08:23:29;10.70;;;4.93;;
59998;SDS011;45859;51.378;6.736;2022-07-29T08:26:03;7.27;;;4.50;;
59998;SDS011;45859;51.378;6.736;2022-07-29T08:28:30;6.83;;;5.10;;
59998;SDS011;45859;51.378;6.736;2022-07-29T08:30:55;9.10;;;4.70;;
59998;SDS011;45859;51.378;6.736;2022-07-29T08:33:21;9.00;;;4.60;;
59998;SDS011;45859;51.378;6.736;2022-07-29T08:35:47;12.77;;;4.70;;
59998;SDS011;45859;51.378;6.736;2022-07-29T08:38:12;14.80;;;5.30;;
59998;SDS011;45859;51.378;6.736;2022-07-29T08:40:38;9.53;;;4.90;;
59998;SDS011;45859;51.378;6.736;2022-07-29T08:43:07;8.20;;;4.60;;
59998;SDS011;45859;51.378;6.736;2022-07-29T08:45:47;6.87;;;4.70;;
59998;SDS011;45859;51.378;6.736;2022-07-29T08:48:15;10.73;;;5.00;;
59998;SDS011;45859;51.378;6.736;2022-07-29T08:50:42;7.07;;;4.80;;
59998;SDS011;45859;51.378;6.736;2022-07-29T08:53:13;8.17;;;5.00;;
59998;SDS011;45859;51.378;6.736;2022-07-29T08:55:43;9.53;;;4.53;;
59998;SDS011;45859;51.378;6.736;2022-07-29T08:58:10;7.80;;;5.10;;
59998;SDS011;45859;51.378;6.736;2022-07-29T09:00:40;10.23;;;5.40;;
59998;SDS011;45859;51.378;6.736;2022-07-29T09:03:08;9.10;;;4.90;;
59998;SDS011;45859;51.378;6.736;2022-07-29T09:05:36;8.45;;;5.00;;
59998;SDS011;45859;51.378;6.736;2022-07-29T09:08:05;8.90;;;4.70;;
59998;SDS011;45859;51.378;6.736;2022-07-29T09:10:31;9.93;;;4.50;;
59998;SDS011;45859;51.378;6.736;2022-07-29T09:12:59;6.63;;;4.83;;
59998;SDS011;45859;51.378;6.736;2022-07-29T09:15:25;10.50;;;4.45;;
59998;SDS011;45859;51.378;6.736;2022-07-29T09:17:50;9.03;;;5.97;;
59998;SDS011;45859;51.378;6.736;2022-07-29T09:20:19;9.97;;;5.20;;
59998;SDS011;45859;51.378;6.736;2022-07-29T09:22:49;7.33;;;5.27;;
59998;SDS011;45859;51.378;6.736;2022-07-29T09:25:36;11.37;;;4.97;;
59998;SDS011;45859;51.378;6.736;2022-07-29T09:28:07;6.80;;;5.50;;
59998;SDS011;45859;51.378;6.736;2022-07-29T09:30:34;9.45;;;5.68;;
59998;SDS011;45859;51.378;6.736;2022-07-29T09:33:00;10.83;;;5.73;;
59998;SDS011;45859;51.378;6.736;2022-07-29T09:35:28;11.10;;;5.67;;
59998;SDS011;45859;51.378;6.736;2022-07-29T09:37:54;10.37;;;5.73;;
59998;SDS011;45859;51.378;6.736;2022-07-29T09:40:21;11.77;;;5.63;;
59998;SDS011;45859;51.378;6.736;2022-07-29T09:42:49;11.75;;;6.10;;
59998;SDS011;45859;51.378;6.736;2022-07-29T09:48:13;9.87;;;6.33;;
59998;SDS011;45859;51.378;6.736;2022-07-29T09:50:44;13.27;;;6.10;;
59998;SDS011;45859;51.378;6.736;2022-07-29T09:53:11;11.13;;;6.30;;
59998;SDS011;45859;51.378;6.736;2022-07-29T09:55:54;9.73;;;6.13;;
59998;SDS011;45859;51.378;6.736;2022-07-29T09:58:20;10.80;;;6.27;;
59998;SDS011;45859;51.378;6.736;2022-07-29T10:00:48;10.10;;;6.60;;
59998;SDS011;45859;51.378;6.736;2022-07-29T10:03:15;7.97;;;5.90;;
59998;SDS011;45859;51.378;6.736;2022-07-29T10:05:41;8.85;;;6.20;;
59998;SDS011;45859;51.378;6.736;2022-07-29T10:08:09;11.38;;;6.60;;
59998;SDS011;45859;51.378;6.736;2022-07-29T10:10:36;10.98;;;6.70;;
59998;SDS011;45859;51.378;6.736;2022-07-29T10:13:08;13.02;;;6.82;;
59998;SDS011;45859;51.378;6.736;2022-07-29T10:15:36;12.50;;;6.88;;
59998;SDS011;45859;51.378;6.736;2022-07-29T10:18:05;10.60;;;6.28;;
59998;SDS011;45859;51.378;6.736;2022-07-29T10:20:32;12.85;;;5.53;;
59998;SDS011;45859;51.378;6.736;2022-07-29T10:22:58;10.25;;;5.88;;
59998;SDS011;45859;51.378;6.736;2022-07-29T10:25:24;11.45;;;5.97;;
59998;SDS011;45859;51.378;6.736;2022-07-29T10:27:51;7.95;;;5.75;;
59998;SDS011;45859;51.378;6.736;2022-07-29T10:30:17;10.75;;;5.35;;
59998;SDS011;45859;51.378;6.736;2022-07-29T10:43:52;15.40;;;5.53;;
59998;SDS011;45859;51.378;6.736;2022-07-29T10:46:24;8.15;;;4.30;;
59998;SDS011;45859;51.378;6.736;2022-07-29T10:52:06;14.02;;;4.97;;
59998;SDS011;45859;51.378;6.736;2022-07-29T10:57:20;7.68;;;4.10;;
59998;SDS011;45859;51.378;6.736;2022-07-29T11:07:35;6.35;;;3.85;;
59998;SDS011;45859;51.378;6.736;2022-07-29T11:15:05;6.80;;;3.13;;
59998;SDS011;45859;51.378;6.736;2022-07-29T11:18:15;6.88;;;3.45;;
59998;SDS011;45859;51.378;6.736;2022-07-29T11:28:52;7.25;;;3.47;;
59998;SDS011;45859;51.378;6.736;2022-07-29T11:34:44;8.43;;;3.22;;
59998;SDS011;45859;51.378;6.736;2022-07-29T11:44:56;7.50;;;3.90;;
59998;SDS011;45859;51.378;6.736;2022-07-29T11:47:50;5.43;;;3.20;;
59998;SDS011;45859;51.378;6.736;2022-07-29T11:50:26;9.07;;;3.72;;
59998;SDS011;45859;51.378;6.736;2022-07-29T11:52:54;8.70;;;3.63;;
59998;SDS011;45859;51.378;6.736;2022-07-29T11:55:20;7.18;;;3.63;;
59998;SDS011;45859;51.378;6.736;2022-07-29T11:57:48;7.47;;;3.42;;
59998;SDS011;45859;51.378;6.736;2022-07-29T12:00:22;6.53;;;3.40;;
59998;SDS011;45859;51.378;6.736;2022-07-29T12:03:01;6.07;;;3.25;;
59998;SDS011;45859;51.378;6.736;2022-07-29T12:08:18;8.05;;;3.63;;
59998;SDS011;45859;51.378;6.736;2022-07-29T12:10:46;6.60;;;3.33;;
59998;SDS011;45859;51.378;6.736;2022-07-29T12:13:13;7.90;;;3.88;;
59998;SDS011;45859;51.378;6.736;2022-07-29T12:15:40;8.95;;;4.18;;
59998;SDS011;45859;51.378;6.736;2022-07-29T12:18:10;8.43;;;3.80;;
59998;SDS011;45859;51.378;6.736;2022-07-29T12:20:36;6.30;;;3.90;;
59998;SDS011;45859;51.378;6.736;2022-07-29T12:23:09;7.75;;;3.78;;
59998;SDS011;45859;51.378;6.736;2022-07-29T12:25:37;7.80;;;3.90;;
59998;SDS011;45859;51.378;6.736;2022-07-29T12:28:05;12.73;;;4.57;;
59998;SDS011;45859;51.378;6.736;2022-07-29T12:30:35;8.65;;;3.53;;
59998;SDS011;45859;51.378;6.736;2022-07-29T12:33:29;8.88;;;3.88;;
59998;SDS011;45859;51.378;6.736;2022-07-29T12:35:57;4.22;;;3.10;;
59998;SDS011;45859;51.378;6.736;2022-07-29T12:40:52;7.93;;;3.20;;
59998;SDS011;45859;51.378;6.736;2022-07-29T12:43:19;10.07;;;3.72;;
59998;SDS011;45859;51.378;6.736;2022-07-29T12:45:48;7.95;;;3.22;;
59998;SDS011;45859;51.378;6.736;2022-07-29T12:48:16;13.40;;;3.92;;
59998;SDS011;45859;51.378;6.736;2022-07-29T12:53:39;5.93;;;3.17;;
59998;SDS011;45859;51.378;6.736;2022-07-29T12:56:05;7.00;;;2.97;;
59998;SDS011;45859;51.378;6.736;2022-07-29T12:58:40;8.15;;;3.22;;
59998;SDS011;45859;51.378;6.736;2022-07-29T13:01:11;5.75;;;3.00;;
59998;SDS011;45859;51.378;6.736;2022-07-29T13:03:45;6.32;;;3.05;;
59998;SDS011;45859;51.378;6.736;2022-07-29T13:14:10;6.40;;;3.20;;
59998;SDS011;45859;51.378;6.736;2022-07-29T13:16:59;4.75;;;2.85;;
59998;SDS011;45859;51.378;6.736;2022-07-29T13:19:45;4.60;;;2.75;;
59998;SDS011;45859;51.378;6.736;2022-07-29T13:22:13;5.40;;;2.80;;
59998;SDS011;45859;51.378;6.736;2022-07-29T13:27:17;7.05;;;3.40;;
59998;SDS011;45859;51.378;6.736;2022-07-29T13:29:43;8.88;;;3.47;;
59998;SDS011;45859;51.378;6.736;2022-07-29T13:32:09;6.47;;;3.03;;
59998;SDS011;45859;51.378;6.736;2022-07-29T13:34:35;6.60;;;3.47;;
59998;SDS011;45859;51.378;6.736;2022-07-29T13:37:00;6.85;;;3.28;;
59998;SDS011;45859;51.378;6.736;2022-07-29T13:39:26;8.63;;;3.90;;
59998;SDS011;45859;51.378;6.736;2022-07-29T13:41:51;7.57;;;3.70;;
59998;SDS011;45859;51.378;6.736;2022-07-29T13:44:17;6.45;;;3.72;;
59998;SDS011;45859;51.378;6.736;2022-07-29T13:46:43;6.80;;;3.60;;
59998;SDS011;45859;51.378;6.736;2022-07-29T13:49:08;9.13;;;4.00;;
59998;SDS011;45859;51.378;6.736;2022-07-29T13:51:36;11.25;;;4.30;;
59998;SDS011;45859;51.378;6.736;2022-07-29T13:54:02;6.38;;;4.45;;
59998;SDS011;45859;51.378;6.736;2022-07-29T13:56:28;8.85;;;4.20;;
59998;SDS011;45859;51.378;6.736;2022-07-29T13:58:54;8.02;;;4.15;;
59998;SDS011;45859;51.378;6.736;2022-07-29T14:01:20;8.27;;;4.80;;
59998;SDS011;45859;51.378;6.736;2022-07-29T14:03:46;5.80;;;3.65;;
59998;SDS011;45859;51.378;6.736;2022-07-29T14:06:12;7.53;;;3.88;;
59998;SDS011;45859;51.378;6.736;2022-07-29T14:08:38;7.05;;;4.38;;
59998;SDS011;45859;51.378;6.736;2022-07-29T14:11:04;6.45;;;4.18;;
59998;SDS011;45859;51.378;6.736;2022-07-29T14:13:30;8.20;;;4.45;;
59998;SDS011;45859;51.378;6.736;2022-07-29T14:15:56;11.18;;;3.95;;
59998;SDS011;45859;51.378;6.736;2022-07-29T14:18:22;5.70;;;3.85;;
59998;SDS011;45859;51.378;6.736;2022-07-29T14:20:47;8.52;;;4.57;;
59998;SDS011;45859;51.378;6.736;2022-07-29T14:23:13;8.00;;;4.00;;
59998;SDS011;45859;51.378;6.736;2022-07-29T14:25:39;6.05;;;3.20;;
59998;SDS011;45859;51.378;6.736;2022-07-29T14:28:04;6.78;;;4.90;;
59998;SDS011;45859;51.378;6.736;2022-07-29T14:30:30;7.90;;;4.28;;
59998;SDS011;45859;51.378;6.736;2022-07-29T14:32:56;6.90;;;4.30;;
59998;SDS011;45859;51.378;6.736;2022-07-29T14:35:22;9.25;;;5.65;;
59998;SDS011;45859;51.378;6.736;2022-07-29T14:37:51;9.23;;;5.55;;
59998;SDS011;45859;51.378;6.736;2022-07-29T14:40:16;9.45;;;5.05;;
59998;SDS011;45859;51.378;6.736;2022-07-29T14:42:42;7.93;;;4.60;;
59998;SDS011;45859;51.378;6.736;2022-07-29T14:45:08;9.30;;;4.72;;
59998;SDS011;45859;51.378;6.736;2022-07-29T14:47:35;7.00;;;4.00;;
59998;SDS011;45859;51.378;6.736;2022-07-29T14:50:02;8.57;;;4.03;;
59998;SDS011;45859;51.378;6.736;2022-07-29T14:52:29;5.72;;;3.17;;
59998;SDS011;45859;51.378;6.736;2022-07-29T14:54:58;6.65;;;3.40;;
59998;SDS011;45859;51.378;6.736;2022-07-29T14:57:24;9.45;;;3.50;;
59998;SDS011;45859;51.378;6.736;2022-07-29T14:59:50;7.03;;;3.10;;
59998;SDS011;45859;51.378;6.736;2022-07-29T15:02:16;3.90;;;3.03;;
59998;SDS011;45859;51.378;6.736;2022-07-29T15:04:41;5.82;;;2.80;;
59998;SDS011;45859;51.378;6.736;2022-07-29T15:07:07;6.93;;;2.58;;
59998;SDS011;45859;51.378;6.736;2022-07-29T15:09:33;4.70;;;2.80;;
59998;SDS011;45859;51.378;6.736;2022-07-29T15:11:59;6.32;;;2.92;;
59998;SDS011;45859;51.378;6.736;2022-07-29T15:14:24;3.90;;;2.08;;
59998;SDS011;45859;51.378;6.736;2022-07-29T15:16:50;4.82;;;2.60;;
59998;SDS011;45859;51.378;6.736;2022-07-29T15:19:19;3.15;;;2.10;;
59998;SDS011;45859;51.378;6.736;2022-07-29T15:21:44;3.75;;;2.42;;
59998;SDS011;45859;51.378;6.736;2022-07-29T15:24:10;3.92;;;2.40;;
59998;SDS011;45859;51.378;6.736;2022-07-29T15:26:36;3.53;;;2.38;;
59998;SDS011;45859;51.378;6.736;2022-07-29T15:29:02;4.90;;;3.00;;
59998;SDS011;45859;51.378;6.736;2022-07-29T15:31:27;4.90;;;2.45;;
59998;SDS011;45859;51.378;6.736;2022-07-29T15:33:53;4.88;;;2.05;;
59998;SDS011;45859;51.378;6.736;2022-07-29T15:36:19;4.85;;;3.10;;
59998;SDS011;45859;51.378;6.736;2022-07-29T15:38:44;6.30;;;2.88;;
59998;SDS011;45859;51.378;6.736;2022-07-29T15:41:14;5.03;;;2.58;;
59998;SDS011;45859;51.378;6.736;2022-07-29T15:43:43;4.07;;;2.20;;
59998;SDS011;45859;51.378;6.736;2022-07-29T15:46:12;4.85;;;2.42;;
59998;SDS011;45859;51.378;6.736;2022-07-29T15:48:57;3.95;;;1.83;;
59998;SDS011;45859;51.378;6.736;2022-07-29T15:51:23;5.95;;;2.30;;
59998;SDS011;45859;51.378;6.736;2022-07-29T15:53:49;6.75;;;2.10;;
59998;SDS011;45859;51.378;6.736;2022-07-29T15:56:15;4.68;;;2.45;;
59998;SDS011;45859;51.378;6.736;2022-07-29T15:58:40;3.40;;;2.05;;
59998;SDS011;45859;51.378;6.736;2022-07-29T16:01:06;3.17;;;2.38;;
59998;SDS011;45859;51.378;6.736;2022-07-29T16:03:32;6.40;;;2.38;;
59998;SDS011;45859;51.378;6.736;2022-07-29T16:05:57;5.38;;;2.60;;
59998;SDS011;45859;51.378;6.736;2022-07-29T16:08:23;6.35;;;2.55;;
59998;SDS011;45859;51.378;6.736;2022-07-29T16:10:49;6.03;;;2.63;;
59998;SDS011;45859;51.378;6.736;2022-07-29T16:13:15;6.00;;;2.45;;
59998;SDS011;45859;51.378;6.736;2022-07-29T16:15:40;6.40;;;2.78;;
59998;SDS011;45859;51.378;6.736;2022-07-29T16:18:06;4.82;;;3.20;;
59998;SDS011;45859;51.378;6.736;2022-07-29T16:20:34;4.60;;;2.83;;